Richard Gonsoulin II — WDD8676 — position and weather

sailwx.info

Track history (hours):
 
Tides and Currents Weather Stations Pressure Air Temp Water Temp Dewpoint Dewpoint Depression Visibility Wind Speed Wind Dir Waves Ship Positions

Richard Gonsoulin II

Owner: LeBeouf Bros. Towing, LLC, Houma, LA. More information available from US FCC via Universal Licensing System and Coast Guard Vessel Documentation Center.

Last reported at 2017-Nov-19 21:55 UTC. Time now 2017-Nov-23 05:52 UTC.
Position N 29°42' W 095°03'.

Length 22 m; draft 3 m.

Type: Tug. MMSI: 367301310.

Date/timePositionNaut miles runAvg speedWind from/ knotsBaromVisibWave heightAir tempDewpointWater temp
2017-Nov-19 21:55N 29°42' W 095°03'0 0.0
2017-Nov-18 07:26N 29°43' W 095°03'0 0.2
2017-Nov-18 06:56N 29°43' W 095°03'1 1.4
2017-Nov-18 06:21N 29°42' W 095°02'2 4.1
2017-Nov-18 05:54N 29°42' W 094°60'3 5.2
2017-Nov-18 05:17N 29°39' W 094°58'2 6.0
2017-Nov-18 05:01N 29°37' W 094°57'3 6.0
2017-Nov-18 04:28N 29°35' W 094°56'  
2017-Nov-15 23:01N 29°35' W 094°56'0 7.2
2017-Nov-15 23:00N 29°35' W 094°56'3 6.7
2017-Nov-15 22:30N 29°38' W 094°58'3 6.4
2017-Nov-15 22:00N 29°41' W 094°59'3 5.2
2017-Nov-15 21:28N 29°42' W 095°02'1 0.0
2017-Nov-14 06:29N 29°42' W 095°03'0 0.0
2017-Nov-14 05:58N 29°42' W 095°03'0 0.0
2017-Nov-14 05:29N 29°42' W 095°03'0 0.0
2017-Nov-14 04:48N 29°42' W 095°03'0 0.0
2017-Nov-14 04:22N 29°42' W 095°03'0 0.0
2017-Nov-14 04:00N 29°42' W 095°03'0 0.0
2017-Nov-14 03:28N 29°42' W 095°03'0 0.0
2017-Nov-14 02:55N 29°42' W 095°03'0 0.0
2017-Nov-14 02:29N 29°42' W 095°03'0 0.0
2017-Nov-14 01:58N 29°42' W 095°03'0 0.0
2017-Nov-14 01:28N 29°42' W 095°03'0 0.0
2017-Nov-14 00:57N 29°42' W 095°03'0 0.0
2017-Nov-14 00:06N 29°42' W 095°03'0 0.0
2017-Nov-13 23:57N 29°42' W 095°03'0 0.0
2017-Nov-13 23:17N 29°42' W 095°03'0 0.0
2017-Nov-13 02:00N 29°42' W 095°03'0 0.0
2017-Nov-13 01:24N 29°42' W 095°03'0 0.0
2017-Nov-13 00:55N 29°42' W 095°03'0 0.0
2017-Nov-12 17:00N 29°42' W 095°03'0 0.0
2017-Nov-12 16:13N 29°42' W 095°03'0 0.0
2017-Nov-12 14:33N 29°42' W 095°03'0 0.0
2017-Nov-12 14:23N 29°42' W 095°03'1 2.2
2017-Nov-12 13:46N 29°43' W 095°01'2 5.3
2017-Nov-12 13:22N 29°44' W 095°03'3 6.0
2017-Nov-12 12:56N 29°45' W 095°06'1 1.2
2017-Nov-12 12:17N 29°45' W 095°06'0 0.0
2017-Nov-12 03:31N 29°45' W 095°06'0 0.0
2017-Nov-12 03:18N 29°45' W 095°06'5 0.3
2017-Nov-11 10:44N 29°43' W 095°01'0 2.1
2017-Nov-11 10:30N 29°42' W 095°01'1 2.4
2017-Nov-11 10:00N 29°43' W 095°03'1 0.0
2017-Nov-10 06:20N 29°42' W 095°01'2 5.4
2017-Nov-10 06:00N 29°42' W 094°59'3 6.4
2017-Nov-10 05:30N 29°39' W 094°58'3 6.2
2017-Nov-10 05:00N 29°36' W 094°57'  
Track history (hours):
 
Tides and Currents Weather Stations Pressure Air Temp Water Temp Dewpoint Dewpoint Depression Visibility Wind Speed Wind Dir Waves Ship Positions

Richard Gonsoulin II

Owner: LeBeouf Bros. Towing, LLC, Houma, LA. More information available from US FCC via Universal Licensing System and Coast Guard Vessel Documentation Center.

Last reported at 2017-Nov-19 21:55 UTC. Time now 2017-Nov-23 05:52 UTC.
Position N 29°42' W 095°03'.

Length 22 m; draft 3 m.

Type: Tug. MMSI: 367301310.

Date/timePositionNaut miles runAvg speedWind from/ knotsBaromVisibWave heightAir tempDewpointWater temp
2017-Nov-19 21:55N 29°42' W 095°03'0 0.0
2017-Nov-18 07:26N 29°43' W 095°03'0 0.2
2017-Nov-18 06:56N 29°43' W 095°03'1 1.4
2017-Nov-18 06:21N 29°42' W 095°02'2 4.1
2017-Nov-18 05:54N 29°42' W 094°60'3 5.2
2017-Nov-18 05:17N 29°39' W 094°58'2 6.0
2017-Nov-18 05:01N 29°37' W 094°57'3 6.0
2017-Nov-18 04:28N 29°35' W 094°56'  
2017-Nov-15 23:01N 29°35' W 094°56'0 7.2
2017-Nov-15 23:00N 29°35' W 094°56'3 6.7
2017-Nov-15 22:30N 29°38' W 094°58'3 6.4
2017-Nov-15 22:00N 29°41' W 094°59'3 5.2
2017-Nov-15 21:28N 29°42' W 095°02'1 0.0
2017-Nov-14 06:29N 29°42' W 095°03'0 0.0
2017-Nov-14 05:58N 29°42' W 095°03'0 0.0
2017-Nov-14 05:29N 29°42' W 095°03'0 0.0
2017-Nov-14 04:48N 29°42' W 095°03'0 0.0
2017-Nov-14 04:22N 29°42' W 095°03'0 0.0
2017-Nov-14 04:00N 29°42' W 095°03'0 0.0
2017-Nov-14 03:28N 29°42' W 095°03'0 0.0
2017-Nov-14 02:55N 29°42' W 095°03'0 0.0
2017-Nov-14 02:29N 29°42' W 095°03'0 0.0
2017-Nov-14 01:58N 29°42' W 095°03'0 0.0
2017-Nov-14 01:28N 29°42' W 095°03'0 0.0
2017-Nov-14 00:57N 29°42' W 095°03'0 0.0
2017-Nov-14 00:06N 29°42' W 095°03'0 0.0
2017-Nov-13 23:57N 29°42' W 095°03'0 0.0
2017-Nov-13 23:17N 29°42' W 095°03'0 0.0
2017-Nov-13 02:00N 29°42' W 095°03'0 0.0
2017-Nov-13 01:24N 29°42' W 095°03'0 0.0
2017-Nov-13 00:55N 29°42' W 095°03'0 0.0
2017-Nov-12 17:00N 29°42' W 095°03'0 0.0
2017-Nov-12 16:13N 29°42' W 095°03'0 0.0
2017-Nov-12 14:33N 29°42' W 095°03'0 0.0
2017-Nov-12 14:23N 29°42' W 095°03'1 2.2
2017-Nov-12 13:46N 29°43' W 095°01'2 5.3
2017-Nov-12 13:22N 29°44' W 095°03'3 6.0
2017-Nov-12 12:56N 29°45' W 095°06'1 1.2
2017-Nov-12 12:17N 29°45' W 095°06'0 0.0
2017-Nov-12 03:31N 29°45' W 095°06'0 0.0
2017-Nov-12 03:18N 29°45' W 095°06'5 0.3
2017-Nov-11 10:44N 29°43' W 095°01'0 2.1
2017-Nov-11 10:30N 29°42' W 095°01'1 2.4
2017-Nov-11 10:00N 29°43' W 095°03'1 0.0
2017-Nov-10 06:20N 29°42' W 095°01'2 5.4
2017-Nov-10 06:00N 29°42' W 094°59'3 6.4
2017-Nov-10 05:30N 29°39' W 094°58'3 6.2
2017-Nov-10 05:00N 29°36' W 094°57'  

Dump ship's entire track history